createdAt,value
2019-03-15T00:00:46.266Z,2.30
2019-03-15T00:03:16.117Z,2.53
2019-03-15T00:05:45.861Z,2.50
2019-03-15T00:08:15.465Z,2.43
2019-03-15T00:10:45.071Z,3.00
2019-03-15T00:13:15.019Z,2.70
2019-03-15T00:15:44.558Z,3.00
2019-03-15T00:18:13.943Z,2.60
2019-03-15T00:20:43.937Z,3.03
2019-03-15T00:23:13.661Z,2.87
2019-03-15T00:25:43.647Z,3.33
2019-03-15T00:28:13.683Z,2.67
2019-03-15T00:30:44.032Z,2.97
2019-03-15T00:33:13.880Z,3.37
2019-03-15T00:35:43.445Z,2.60
2019-03-15T00:38:13.098Z,3.30
2019-03-15T00:40:45.066Z,2.50
2019-03-15T00:43:15.256Z,2.77
2019-03-15T00:45:44.926Z,3.00
2019-03-15T00:48:14.492Z,2.93
2019-03-15T00:50:44.426Z,3.60
2019-03-15T00:53:14.172Z,2.93
2019-03-15T00:55:43.662Z,2.73
2019-03-15T00:58:13.322Z,3.20
2019-03-15T01:00:42.860Z,3.20
2019-03-15T01:03:12.581Z,2.83
2019-03-15T01:05:42.303Z,3.33
2019-03-15T01:08:11.928Z,2.97
2019-03-15T01:10:44.638Z,2.63
2019-03-15T01:13:15.002Z,2.37
2019-03-15T01:15:44.559Z,3.00
2019-03-15T01:18:14.217Z,2.67
2019-03-15T01:20:43.749Z,2.90
2019-03-15T01:23:13.458Z,3.50
2019-03-15T01:25:43.452Z,4.17
2019-03-15T01:28:13.100Z,4.37
2019-03-15T01:30:45.842Z,2.60
2019-03-15T01:33:15.259Z,2.73
2019-03-15T01:35:45.040Z,3.03
2019-03-15T01:38:14.717Z,3.30
2019-03-15T01:40:44.830Z,3.37
2019-03-15T01:43:14.530Z,2.83
2019-03-15T01:45:46.535Z,3.20
2019-03-15T01:48:16.945Z,3.33
2019-03-15T01:50:46.624Z,3.73
2019-03-15T01:53:16.562Z,4.47
2019-03-15T01:55:46.234Z,3.60
2019-03-15T01:58:16.312Z,3.00
2019-03-15T02:00:45.851Z,3.00
2019-03-15T02:03:18.480Z,3.77
2019-03-15T02:05:48.286Z,3.30
2019-03-15T02:08:18.251Z,3.43
2019-03-15T02:10:47.902Z,4.27
2019-03-15T02:13:17.851Z,3.80
2019-03-15T02:15:48.156Z,4.70
2019-03-15T02:18:18.722Z,4.10
2019-03-15T02:20:48.324Z,4.60
2019-03-15T02:23:17.830Z,4.53
2019-03-15T02:25:47.508Z,3.60
2019-03-15T02:28:17.036Z,4.83
2019-03-15T02:30:46.548Z,4.90
2019-03-15T02:33:16.358Z,4.63
2019-03-15T02:35:47.101Z,5.53
2019-03-15T02:38:16.876Z,4.43
2019-03-15T02:40:46.712Z,4.17
2019-03-15T02:43:16.867Z,4.30
2019-03-15T02:45:46.421Z,5.30
2019-03-15T02:48:16.454Z,5.30
2019-03-15T02:50:46.217Z,5.50
2019-03-15T02:53:15.872Z,3.80
2019-03-15T02:55:45.677Z,4.10
2019-03-15T02:58:15.264Z,4.50
2019-03-15T03:00:44.955Z,5.27
2019-03-15T03:03:14.618Z,4.23
2019-03-15T03:05:44.513Z,3.50
2019-03-15T03:08:14.370Z,3.30
2019-03-15T03:10:44.121Z,5.03
2019-03-15T03:13:14.118Z,3.97
2019-03-15T03:15:43.653Z,4.40
2019-03-15T03:18:13.162Z,4.20
2019-03-15T03:20:43.110Z,3.67
2019-03-15T03:23:12.884Z,5.10
2019-03-15T03:25:44.385Z,4.33
2019-03-15T03:28:14.659Z,4.07
2019-03-15T03:30:46.685Z,3.47
2019-03-15T03:33:18.072Z,3.43
2019-03-15T03:35:47.953Z,3.90
2019-03-15T03:38:17.732Z,3.83
2019-03-15T03:40:47.489Z,3.87
2019-03-15T03:43:17.051Z,4.03
2019-03-15T03:45:46.643Z,4.00
2019-03-15T03:48:16.358Z,4.10
2019-03-15T03:50:48.052Z,4.47
2019-03-15T03:53:17.744Z,4.10
2019-03-15T03:55:47.292Z,3.90
2019-03-15T03:58:17.153Z,3.70
2019-03-15T04:00:46.908Z,3.63
2019-03-15T04:03:16.617Z,3.77
2019-03-15T04:05:46.595Z,4.00
2019-03-15T04:08:16.443Z,4.40
2019-03-15T04:10:46.161Z,3.80
2019-03-15T04:13:15.929Z,4.10
2019-03-15T04:15:45.711Z,4.90
2019-03-15T04:18:18.052Z,4.00
2019-03-15T04:20:47.861Z,21.47
2019-03-15T04:23:17.488Z,4.20
2019-03-15T04:25:47.131Z,3.90
2019-03-15T04:28:16.762Z,4.90
2019-03-15T04:30:46.357Z,3.30
2019-03-15T04:33:15.845Z,4.07
2019-03-15T04:35:45.589Z,3.93
2019-03-15T04:38:15.600Z,4.20
2019-03-15T04:40:45.078Z,4.30
2019-03-15T04:43:16.072Z,3.90
2019-03-15T04:45:45.564Z,3.73
2019-03-15T04:48:15.186Z,3.80
2019-03-15T04:50:45.405Z,4.07
2019-03-15T04:53:17.779Z,5.07
2019-03-15T04:55:47.344Z,4.60
2019-03-15T04:58:16.918Z,3.70
2019-03-15T05:00:46.743Z,4.50
2019-03-15T05:03:16.385Z,3.70
2019-03-15T05:05:46.480Z,3.87
2019-03-15T05:08:16.058Z,3.93
2019-03-15T05:10:45.647Z,3.93
2019-03-15T05:13:15.169Z,3.70
2019-03-15T05:15:44.690Z,4.60
2019-03-15T05:18:14.161Z,4.80
2019-03-15T05:20:45.214Z,4.63
2019-03-15T05:23:15.244Z,4.00
2019-03-15T05:25:45.000Z,3.70
2019-03-15T05:28:15.599Z,4.27
2019-03-15T05:30:45.183Z,4.30
2019-03-15T05:33:14.775Z,4.40
2019-03-15T05:35:44.571Z,5.10
2019-03-15T05:38:14.362Z,4.00
2019-03-15T05:40:43.876Z,4.40
2019-03-15T05:43:13.599Z,5.37
2019-03-15T05:45:43.159Z,5.00
2019-03-15T05:48:12.882Z,5.47
2019-03-15T05:50:42.998Z,5.60
2019-03-15T05:53:12.630Z,5.23
2019-03-15T05:55:42.538Z,5.23
2019-03-15T05:58:12.052Z,4.70
2019-03-15T06:00:41.771Z,5.50
2019-03-15T06:03:12.628Z,5.00
2019-03-15T06:05:42.742Z,6.73
2019-03-15T06:08:12.405Z,5.67
2019-03-15T06:10:42.185Z,4.90
2019-03-15T06:13:11.874Z,4.90
2019-03-15T06:15:41.701Z,6.10
2019-03-15T06:18:11.503Z,5.20
2019-03-15T06:20:41.609Z,4.60
2019-03-15T06:23:11.546Z,5.03
2019-03-15T06:25:41.308Z,4.80
2019-03-15T06:28:10.992Z,6.20
2019-03-15T06:30:41.046Z,12.80
2019-03-15T06:33:10.779Z,11.47
2019-03-15T06:35:41.253Z,21.53
2019-03-15T06:38:10.894Z,7.43
2019-03-15T06:40:41.027Z,5.50
2019-03-15T06:43:13.180Z,5.30
2019-03-15T06:45:42.283Z,5.20
2019-03-15T06:48:12.033Z,5.27
2019-03-15T06:50:42.213Z,5.00
2019-03-15T06:53:12.076Z,4.30
2019-03-15T06:55:51.891Z,4.20
2019-03-15T06:58:22.059Z,4.90
2019-03-15T07:00:54.467Z,5.30
2019-03-15T07:03:23.525Z,4.43
2019-03-15T07:05:59.439Z,4.60
2019-03-15T07:08:29.135Z,4.40
2019-03-15T07:10:58.864Z,4.77
2019-03-15T07:13:28.584Z,5.13
2019-03-15T07:15:58.436Z,3.93
2019-03-15T07:18:28.723Z,4.03
2019-03-15T07:20:58.641Z,5.00
2019-03-15T07:23:28.561Z,4.87
2019-03-15T07:25:58.667Z,4.13
2019-03-15T07:28:30.764Z,4.10
2019-03-15T07:31:01.381Z,4.80
2019-03-15T07:33:31.655Z,4.57
2019-03-15T07:36:03.686Z,4.70
2019-03-15T07:38:33.379Z,5.37
2019-03-15T07:41:07.182Z,4.90
2019-03-15T07:43:37.866Z,4.47
2019-03-15T07:46:13.990Z,5.60
2019-03-15T07:48:46.079Z,4.87
2019-03-15T07:51:16.279Z,5.50
2019-03-15T07:53:46.381Z,5.03
2019-03-15T07:56:16.537Z,4.90
2019-03-15T07:58:46.686Z,4.70
2019-03-15T08:01:17.396Z,5.17
2019-03-15T08:03:47.544Z,4.63
2019-03-15T08:06:18.362Z,4.73
2019-03-15T08:08:51.525Z,4.57
2019-03-15T08:11:27.152Z,4.20
2019-03-15T08:13:58.113Z,4.10
2019-03-15T08:16:39.694Z,4.97
2019-03-15T08:19:44.097Z,4.70
2019-03-15T08:22:14.258Z,4.27
2019-03-15T08:24:51.314Z,4.30
2019-03-15T08:27:17.760Z,3.87
2019-03-15T08:29:47.896Z,4.70
2019-03-15T08:32:18.142Z,3.90
2019-03-15T08:34:58.781Z,3.73
2019-03-15T08:37:38.575Z,4.63
2019-03-15T08:40:18.682Z,4.27
2019-03-15T08:42:57.119Z,4.70
2019-03-15T08:45:27.397Z,4.10
2019-03-15T08:48:10.495Z,4.60
2019-03-15T08:50:58.717Z,4.43
2019-03-15T08:53:46.457Z,3.53
2019-03-15T08:56:28.283Z,3.70
2019-03-15T08:59:26.457Z,3.90
2019-03-15T09:02:07.600Z,4.50
2019-03-15T09:04:40.159Z,3.70
2019-03-15T09:07:10.402Z,4.43
2019-03-15T09:09:40.420Z,3.07
2019-03-15T09:12:16.457Z,4.80
2019-03-15T09:14:46.154Z,3.47
2019-03-15T09:17:16.009Z,3.40
2019-03-15T09:19:45.929Z,3.20
2019-03-15T09:22:15.926Z,3.03
2019-03-15T09:24:45.498Z,2.90
2019-03-15T09:27:15.213Z,3.30
2019-03-15T09:29:46.563Z,3.87
2019-03-15T09:32:19.016Z,3.00
2019-03-15T09:34:48.879Z,3.40
2019-03-15T09:37:18.976Z,3.60
2019-03-15T09:39:48.958Z,3.70
2019-03-15T09:42:18.563Z,3.63
2019-03-15T09:44:48.904Z,3.70
2019-03-15T09:47:18.782Z,3.73
2019-03-15T09:49:48.565Z,5.50
2019-03-15T09:52:21.114Z,4.90
2019-03-15T09:54:50.562Z,8.83
2019-03-15T09:57:23.032Z,8.63
2019-03-15T09:59:53.164Z,12.40
2019-03-15T10:02:30.030Z,17.10
2019-03-15T10:04:54.569Z,21.30
2019-03-15T10:07:37.876Z,22.30
2019-03-15T10:10:12.973Z,22.97
2019-03-15T10:12:34.712Z,16.43
2019-03-15T10:15:07.820Z,4.90
2019-03-15T10:17:36.998Z,2.07
2019-03-15T10:20:12.478Z,1.70
2019-03-15T10:22:41.608Z,1.63
2019-03-15T10:25:12.030Z,1.53
2019-03-15T10:27:42.043Z,1.27
2019-03-15T10:30:15.578Z,2.10
2019-03-15T10:32:45.770Z,1.20
2019-03-15T10:35:15.956Z,1.40
2019-03-15T10:37:45.749Z,1.30
2019-03-15T10:40:18.991Z,1.33
2019-03-15T10:42:49.267Z,1.30
2019-03-15T10:45:19.464Z,1.50
2019-03-15T10:47:49.637Z,1.30
2019-03-15T10:50:20.050Z,1.40
2019-03-15T10:52:53.540Z,1.50
2019-03-15T10:55:24.344Z,1.00
2019-03-15T10:58:03.591Z,1.27
2019-03-15T11:00:33.618Z,1.47
2019-03-15T11:03:03.905Z,1.30
2019-03-15T11:05:34.226Z,1.60
2019-03-15T11:08:06.755Z,1.40
2019-03-15T11:10:36.940Z,1.37
2019-03-15T11:13:07.249Z,1.07
2019-03-15T11:15:37.261Z,1.10
2019-03-15T11:18:07.676Z,1.47
2019-03-15T11:20:37.716Z,1.30
2019-03-15T11:23:07.986Z,0.93
2019-03-15T11:25:38.551Z,0.90
2019-03-15T11:28:09.842Z,1.37
2019-03-15T11:30:39.510Z,1.17
2019-03-15T11:33:10.779Z,1.00
2019-03-15T11:35:40.537Z,1.53
2019-03-15T11:38:10.452Z,1.20
2019-03-15T11:40:42.309Z,1.20
2019-03-15T11:43:12.135Z,1.00
2019-03-15T11:45:42.183Z,1.63
2019-03-15T11:48:12.392Z,1.30
2019-03-15T11:50:42.127Z,1.20
2019-03-15T11:53:11.887Z,1.10
2019-03-15T11:55:42.191Z,1.13
2019-03-15T11:58:12.427Z,1.30
2019-03-15T12:00:42.312Z,0.70
2019-03-15T12:03:12.664Z,0.90
2019-03-15T12:05:42.864Z,0.90
2019-03-15T12:08:12.788Z,0.80
2019-03-15T12:10:43.049Z,0.60
2019-03-15T12:13:13.426Z,0.50
2019-03-15T12:15:43.265Z,0.70
2019-03-15T12:18:13.913Z,0.80
2019-03-15T12:20:43.833Z,0.83
2019-03-15T12:23:17.922Z,0.70
2019-03-15T12:25:49.461Z,0.60
2019-03-15T12:28:19.458Z,1.20
2019-03-15T12:30:49.632Z,0.70
2019-03-15T12:33:19.995Z,0.57
2019-03-15T12:35:50.010Z,0.70
2019-03-15T12:38:21.208Z,0.70
2019-03-15T12:40:51.503Z,0.80
2019-03-15T12:43:21.324Z,0.80
2019-03-15T12:45:52.619Z,0.80
2019-03-15T12:48:23.587Z,0.60
2019-03-15T12:50:53.971Z,0.57
2019-03-15T12:53:24.090Z,0.80
2019-03-15T12:55:56.094Z,0.60
2019-03-15T12:58:26.165Z,0.57
2019-03-15T13:00:57.517Z,0.60
2019-03-15T13:03:28.090Z,0.80
2019-03-15T13:05:58.009Z,0.60
2019-03-15T13:08:28.509Z,0.80
2019-03-15T13:10:59.140Z,0.80
2019-03-15T13:13:31.695Z,0.80
2019-03-15T13:16:03.923Z,0.80
2019-03-15T13:18:36.008Z,0.70
2019-03-15T13:21:09.874Z,0.93
2019-03-15T13:23:39.886Z,0.70
2019-03-15T13:26:10.189Z,1.00
2019-03-15T13:28:40.884Z,1.10
2019-03-15T13:31:16.278Z,0.63
2019-03-15T13:33:46.816Z,0.87
2019-03-15T13:36:17.651Z,0.50
2019-03-15T13:38:48.255Z,0.70
2019-03-15T13:41:19.781Z,0.70
2019-03-15T13:43:52.008Z,0.40
2019-03-15T13:46:22.003Z,0.60
2019-03-15T13:48:52.518Z,0.53
2019-03-15T13:51:23.782Z,0.70
2019-03-15T13:53:54.261Z,0.50
2019-03-15T13:56:25.972Z,0.80
2019-03-15T13:58:58.859Z,0.67
2019-03-15T14:01:29.426Z,0.50
2019-03-15T14:04:04.744Z,0.57
2019-03-15T14:06:38.263Z,0.70
2019-03-15T14:09:13.478Z,0.67
2019-03-15T14:11:44.100Z,0.57
2019-03-15T14:14:14.959Z,0.60
2019-03-15T14:16:46.534Z,0.60
2019-03-15T14:19:18.825Z,0.50
2019-03-15T14:21:49.523Z,0.63
2019-03-15T14:24:23.076Z,0.70
2019-03-15T14:26:53.878Z,0.83
2019-03-15T14:29:24.446Z,0.60
2019-03-15T14:31:55.531Z,0.50
2019-03-15T14:34:25.822Z,0.50
2019-03-15T14:36:59.017Z,0.63
2019-03-15T14:39:29.727Z,0.60
2019-03-15T14:42:03.814Z,0.93
2019-03-15T14:44:35.376Z,0.90
2019-03-15T14:47:06.752Z,0.53
2019-03-15T14:49:38.315Z,0.70
2019-03-15T14:52:12.257Z,0.60
2019-03-15T14:54:44.084Z,0.60
2019-03-15T14:57:15.262Z,0.60
2019-03-15T14:59:46.168Z,0.60
2019-03-15T15:02:17.086Z,0.70
2019-03-15T15:04:48.190Z,0.50
2019-03-15T15:07:18.974Z,0.77
2019-03-15T15:09:49.723Z,0.60
2019-03-15T15:12:20.646Z,0.60
2019-03-15T15:14:51.557Z,0.70
2019-03-15T15:17:21.952Z,0.57
2019-03-15T15:19:52.866Z,0.67
2019-03-15T15:22:23.425Z,0.60
2019-03-15T15:24:53.920Z,0.50
2019-03-15T15:27:25.584Z,0.60
2019-03-15T15:29:56.188Z,0.53
2019-03-15T15:32:26.766Z,0.60
2019-03-15T15:34:57.198Z,0.70
2019-03-15T15:37:27.335Z,0.80
2019-03-15T15:40:00.172Z,0.60
2019-03-15T15:42:30.054Z,0.40
2019-03-15T15:45:05.313Z,0.50
2019-03-15T15:47:35.730Z,0.60
2019-03-15T15:50:09.983Z,0.70
2019-03-15T15:52:40.284Z,0.63
2019-03-15T15:55:10.915Z,0.50
2019-03-15T15:57:41.657Z,0.60
2019-03-15T16:00:15.152Z,0.53
2019-03-15T16:02:45.562Z,0.60
2019-03-15T16:05:17.589Z,0.77
2019-03-15T16:07:48.155Z,0.73
2019-03-15T16:10:18.742Z,0.63
2019-03-15T16:12:49.249Z,0.53
2019-03-15T16:15:22.498Z,0.67
2019-03-15T16:17:52.916Z,0.50
2019-03-15T16:20:23.322Z,0.50
2019-03-15T16:22:53.729Z,0.70
2019-03-15T16:25:24.415Z,0.70
2019-03-15T16:27:54.736Z,0.57
2019-03-15T16:30:25.693Z,0.47
2019-03-15T16:32:56.046Z,0.63
2019-03-15T16:35:26.803Z,0.70
2019-03-15T16:37:57.667Z,0.60
2019-03-15T16:40:28.073Z,0.60
2019-03-15T16:42:58.261Z,0.60
2019-03-15T16:45:29.835Z,0.80
2019-03-15T16:48:00.426Z,0.60
2019-03-15T16:50:30.894Z,0.87
2019-03-15T16:53:06.115Z,0.67
2019-03-15T16:55:39.351Z,0.50
2019-03-15T16:58:10.054Z,0.47
2019-03-15T17:00:50.657Z,0.50
2019-03-15T17:03:22.020Z,0.60
2019-03-15T17:05:52.407Z,0.60
2019-03-15T17:08:23.068Z,4.20
2019-03-15T17:10:55.942Z,0.50
2019-03-15T17:13:26.292Z,0.50
2019-03-15T17:15:57.433Z,0.60
2019-03-15T17:18:27.776Z,0.50
2019-03-15T17:20:58.275Z,0.70
2019-03-15T17:23:29.422Z,0.60
2019-03-15T17:26:00.315Z,1.10
2019-03-15T17:28:30.574Z,0.70
2019-03-15T17:31:09.882Z,0.80
2019-03-15T17:33:34.966Z,0.90
2019-03-15T17:36:07.970Z,1.17
2019-03-15T17:38:39.370Z,1.17
2019-03-15T17:41:10.027Z,0.50
2019-03-15T17:43:40.672Z,0.90
2019-03-15T17:46:13.081Z,0.80
2019-03-15T17:48:43.904Z,0.93
2019-03-15T17:51:15.586Z,1.00
2019-03-15T17:53:47.217Z,1.40
2019-03-15T17:56:17.794Z,1.40
2019-03-15T17:58:49.514Z,1.43
2019-03-15T18:01:20.228Z,4.40
2019-03-15T18:03:50.859Z,4.80
2019-03-15T18:06:21.522Z,9.33
2019-03-15T18:08:51.667Z,3.30
2019-03-15T18:11:22.002Z,3.20
2019-03-15T18:13:54.457Z,3.03
2019-03-15T18:16:25.136Z,4.50
2019-03-15T18:18:55.674Z,6.43
2019-03-15T18:21:27.883Z,5.17
2019-03-15T18:23:58.456Z,8.93
2019-03-15T18:26:29.255Z,8.47
2019-03-15T18:28:59.758Z,7.03
2019-03-15T18:31:30.121Z,7.50
2019-03-15T18:34:00.891Z,5.80
2019-03-15T18:36:31.345Z,5.70
2019-03-15T18:39:02.849Z,6.03
2019-03-15T18:41:33.323Z,4.03
2019-03-15T18:44:04.811Z,2.10
2019-03-15T18:46:36.696Z,2.10
2019-03-15T18:49:07.383Z,1.80
2019-03-15T18:51:37.824Z,1.63
2019-03-15T18:54:17.404Z,2.70
2019-03-15T18:56:42.829Z,1.70
2019-03-15T18:59:13.453Z,1.17
2019-03-15T19:01:44.197Z,2.33
2019-03-15T19:04:16.106Z,1.20
2019-03-15T19:06:46.692Z,1.40
2019-03-15T19:09:17.066Z,1.33
2019-03-15T19:11:48.042Z,1.20
2019-03-15T19:14:19.055Z,10.07
2019-03-15T19:16:49.625Z,1.37
2019-03-15T19:19:20.179Z,0.93
2019-03-15T19:21:50.921Z,0.83
2019-03-15T19:24:21.088Z,1.17
2019-03-15T19:26:51.563Z,1.33
2019-03-15T19:29:22.287Z,1.23
2019-03-15T19:31:56.942Z,0.80
2019-03-15T19:34:28.644Z,0.70
2019-03-15T19:37:04.471Z,0.70
2019-03-15T19:39:36.162Z,0.60
2019-03-15T19:42:12.742Z,0.80
2019-03-15T19:44:43.680Z,0.67
2019-03-15T19:47:14.844Z,0.43
2019-03-15T19:49:45.491Z,0.50
2019-03-15T19:52:15.758Z,0.70
2019-03-15T19:54:59.479Z,0.50
2019-03-15T19:57:18.482Z,0.70
2019-03-15T19:59:48.859Z,0.63
2019-03-15T20:02:19.881Z,0.50
2019-03-15T20:04:50.355Z,0.53
2019-03-15T20:07:21.236Z,0.57
2019-03-15T20:09:52.359Z,0.50
2019-03-15T20:12:22.780Z,0.63
2019-03-15T20:14:53.025Z,0.50
2019-03-15T20:17:23.540Z,0.70
2019-03-15T20:19:54.159Z,0.40
2019-03-15T20:22:25.103Z,0.50
2019-03-15T20:24:55.484Z,0.53
2019-03-15T20:27:28.208Z,0.60
2019-03-15T20:29:58.913Z,0.60
2019-03-15T20:32:34.918Z,15.97
2019-03-15T20:35:08.010Z,0.40
2019-03-15T20:37:52.648Z,0.60
2019-03-15T20:40:23.628Z,0.50
2019-03-15T20:42:55.628Z,0.40
2019-03-15T20:45:39.425Z,1.00
2019-03-15T20:48:17.611Z,0.57
2019-03-15T20:50:49.474Z,0.47
2019-03-15T20:53:23.561Z,0.73
2019-03-15T20:55:55.015Z,0.70
2019-03-15T20:58:30.050Z,0.40
2019-03-15T21:01:00.925Z,0.47
2019-03-15T21:03:36.034Z,0.40
2019-03-15T21:06:08.545Z,0.40
2019-03-15T21:08:39.117Z,0.50
2019-03-15T21:11:09.989Z,0.47
2019-03-15T21:13:40.564Z,0.50
2019-03-15T21:16:18.528Z,0.40
2019-03-15T21:19:05.209Z,0.30
2019-03-15T21:21:48.369Z,0.40
2019-03-15T21:24:31.652Z,0.40
2019-03-15T21:27:14.342Z,0.40
2019-03-15T21:30:12.448Z,0.30
2019-03-15T21:32:38.920Z,0.50
2019-03-15T21:35:32.641Z,0.50
2019-03-15T21:38:09.985Z,0.50
2019-03-15T21:40:50.806Z,0.40
2019-03-15T21:43:34.726Z,0.37
2019-03-15T21:46:19.953Z,0.40
2019-03-15T21:48:58.250Z,0.40
2019-03-15T21:51:42.067Z,0.40
2019-03-15T21:54:16.981Z,0.50
2019-03-15T21:56:57.345Z,0.50
2019-03-15T21:59:52.517Z,0.43
2019-03-15T22:02:26.109Z,0.40
2019-03-15T22:04:59.139Z,0.43
2019-03-15T22:07:30.632Z,0.40
2019-03-15T22:10:01.044Z,0.73
2019-03-15T22:12:30.792Z,0.30
2019-03-15T22:15:00.442Z,0.40
2019-03-15T22:17:30.573Z,0.50
2019-03-15T22:20:05.037Z,0.50
2019-03-15T22:22:35.184Z,0.50
2019-03-15T22:25:07.699Z,0.43
2019-03-15T22:27:37.344Z,0.50
2019-03-15T22:30:11.283Z,0.40
2019-03-15T22:32:41.786Z,0.43
2019-03-15T22:35:11.378Z,0.50
2019-03-15T22:37:41.524Z,0.50
2019-03-15T22:40:11.169Z,0.40
2019-03-15T22:42:40.892Z,0.50
2019-03-15T22:45:11.397Z,0.50
2019-03-15T22:47:41.113Z,0.50
2019-03-15T22:50:11.564Z,0.40
2019-03-15T22:52:41.431Z,0.47
2019-03-15T22:55:15.312Z,0.60
2019-03-15T22:57:58.957Z,0.53
2019-03-15T23:00:28.809Z,0.40
2019-03-15T23:02:59.959Z,0.40
2019-03-15T23:05:29.678Z,0.40
2019-03-15T23:08:00.153Z,0.40
2019-03-15T23:10:29.607Z,0.40
2019-03-15T23:13:00.054Z,0.50
2019-03-15T23:15:29.711Z,0.50
2019-03-15T23:18:00.193Z,0.50
2019-03-15T23:20:29.746Z,0.53
2019-03-15T23:22:59.245Z,0.50
2019-03-15T23:25:28.878Z,0.53
2019-03-15T23:27:58.518Z,0.70
2019-03-15T23:30:28.263Z,0.60
2019-03-15T23:32:59.735Z,0.40
2019-03-15T23:35:30.702Z,0.60
2019-03-15T23:38:01.133Z,0.60
2019-03-15T23:40:32.961Z,0.50
2019-03-15T23:43:05.548Z,0.80
2019-03-15T23:45:39.274Z,0.60
2019-03-15T23:48:09.604Z,0.70
2019-03-15T23:50:42.162Z,0.50
2019-03-15T23:53:14.656Z,0.80
2019-03-15T23:55:48.534Z,0.87
2019-03-15T23:58:21.851Z,1.07
